Time;durP1;ratioP1;P1;durP2;ratioP2;P2;SDS_P1;SDS_P2;PMS_P1;PMS_P2;Temp;Humidity;BMP_temperature;BMP_pressure;BME280_temperature;BME280_humidity;BME280_pressure;Samples;Min_cycle;Max_cycle;Signal;HPM_P1;HPM_P2
2021/08/26 00:06:57;;;;;;;8.93;5.00;;;18.10;99.90;;;;;;4985462;28;20513;-87
2021/08/26 00:09:39;;;;;;;9.63;4.68;;;18.10;99.90;;;;;;4970213;28;20056;-85
2021/08/26 00:12:07;;;;;;;9.43;4.35;;;18.10;99.90;;;;;;4982664;28;20050;-86
2021/08/26 00:14:35;;;;;;;9.10;4.40;;;18.10;99.90;;;;;;4963007;28;20060;-86
2021/08/26 00:17:09;;;;;;;13.43;5.45;;;17.60;99.90;;;;;;5004018;28;20130;-86
2021/08/26 00:19:38;;;;;;;11.30;5.07;;;18.10;99.90;;;;;;4986201;28;20061;-86
2021/08/26 00:22:07;;;;;;;11.85;4.97;;;18.10;99.90;;;;;;4971013;28;20047;-87
2021/08/26 00:24:39;;;;;;;12.23;6.60;;;18.10;99.90;;;;;;5010378;28;20042;-87
2021/08/26 00:27:07;;;;;;;10.60;5.43;;;18.10;99.90;;;;;;4992061;28;20691;-86
2021/08/26 00:29:35;;;;;;;14.98;6.07;;;18.10;99.90;;;;;;4977416;28;20134;-87
2021/08/26 00:32:04;;;;;;;12.75;5.70;;;18.10;99.90;;;;;;5008625;28;20061;-85
2021/08/26 00:34:32;;;;;;;9.00;4.97;;;18.10;99.90;;;;;;4966208;28;20051;-87
2021/08/26 00:37:02;;;;;;;18.58;6.70;;;18.10;99.90;;;;;;5001172;28;20046;-86
2021/08/26 00:39:35;;;;;;;10.93;5.53;;;18.10;99.90;;;;;;5008104;28;20061;-88
2021/08/26 00:42:06;;;;;;;14.80;5.68;;;18.10;99.90;;;;;;4959323;28;20064;-90
2021/08/26 00:44:38;;;;;;;10.93;4.63;;;18.10;99.90;;;;;;4952074;28;20066;-85
2021/08/26 00:47:20;;;;;;;8.85;4.78;;;18.10;99.90;;;;;;4989634;28;20046;-85
2021/08/26 00:49:58;;;;;;;14.77;5.45;;;18.10;99.90;;;;;;4988003;28;20066;-85
2021/08/26 00:52:52;;;;;;;15.57;6.60;;;17.60;99.90;;;;;;4969251;28;20049;-83
2021/08/26 00:55:24;;;;;;;15.13;6.15;;;18.10;99.90;;;;;;4994712;28;20058;-87
2021/08/26 00:57:52;;;;;;;11.48;4.85;;;18.10;99.90;;;;;;4978293;28;20050;-86
2021/08/26 01:00:29;;;;;;;14.10;6.63;;;18.10;99.90;;;;;;4994233;28;20057;-87
2021/08/26 01:03:12;;;;;;;18.08;5.07;;;18.10;99.90;;;;;;4994165;28;20030;-85
2021/08/26 01:05:45;;;;;;;12.23;5.93;;;18.10;99.90;;;;;;5011539;28;20043;-85
2021/08/26 01:08:36;;;;;;;11.68;5.72;;;18.10;99.90;;;;;;5009404;28;20057;-84
2021/08/26 01:11:05;;;;;;;13.13;5.55;;;18.00;99.90;;;;;;4980745;28;20042;-84
2021/08/26 01:13:39;;;;;;;12.35;5.38;;;18.00;99.90;;;;;;4976454;28;20050;-86
2021/08/26 01:16:10;;;;;;;17.95;6.95;;;18.00;99.90;;;;;;4977451;28;20047;-85
2021/08/26 01:18:41;;;;;;;13.27;6.25;;;18.00;99.90;;;;;;4977218;28;20046;-84
2021/08/26 01:21:16;;;;;;;15.60;6.70;;;17.90;99.90;;;;;;4991861;28;20042;-86
2021/08/26 01:23:55;;;;;;;13.68;6.25;;;17.90;99.90;;;;;;4975803;28;20053;-85
2021/08/26 01:26:47;;;;;;;13.82;7.38;;;17.80;99.90;;;;;;4991516;28;20061;-85
2021/08/26 01:29:17;;;;;;;;;;;17.80;99.90;;;;;;5007211;28;20057;-86
2021/08/26 01:31:47;;;;;;;12.10;6.20;;;17.80;99.90;;;;;;5007222;28;19922;-87
2021/08/26 01:34:21;;;;;;;12.15;5.45;;;17.80;99.90;;;;;;4986940;28;20042;-88
2021/08/26 01:36:53;;;;;;;13.27;5.68;;;17.70;99.90;;;;;;4987104;28;20058;-85
2021/08/26 01:39:22;;;;;;;12.95;5.25;;;17.70;99.90;;;;;;4986966;28;20070;-86
2021/08/26 01:41:52;;;;;;;10.27;5.18;;;17.70;99.90;;;;;;5002471;28;20047;-86
2021/08/26 01:44:27;;;;;;;12.10;5.53;;;17.60;99.90;;;;;;4955563;28;20054;-85
2021/08/26 01:47:15;;;;;;;11.52;4.55;;;17.60;99.90;;;;;;5005060;28;20065;-85
2021/08/26 01:49:49;;;;;;;12.18;5.95;;;17.50;99.90;;;;;;4994066;28;20053;-85
2021/08/26 01:52:22;;;;;;;8.50;4.38;;;17.50;99.90;;;;;;4994211;28;20061;-86
2021/08/26 01:55:01;;;;;;;8.90;3.78;;;18.20;99.90;;;;;;4986405;28;20042;-87
2021/08/26 01:57:31;;;;;;;12.18;4.50;;;17.50;99.90;;;;;;4987722;28;20053;-87
2021/08/26 02:00:06;;;;;;;13.27;5.75;;;17.60;99.90;;;;;;5005236;28;20057;-86
2021/08/26 02:02:35;;;;;;;14.20;5.88;;;17.50;99.90;;;;;;4986516;28;20053;-87
2021/08/26 02:05:04;;;;;;;8.60;5.30;;;17.60;99.90;;;;;;5005198;28;20046;-88
2021/08/26 02:07:32;;;;;;;10.35;5.03;;;17.40;99.90;;;;;;4985964;28;20073;-88
2021/08/26 02:10:00;;;;;;;11.52;5.05;;;17.40;99.90;;;;;;4986704;28;20060;-86
2021/08/26 02:12:29;;;;;;;10.23;4.97;;;17.40;99.90;;;;;;5003702;28;20065;-85
2021/08/26 02:14:59;;;;;;;7.38;3.75;;;17.50;99.90;;;;;;4955120;28;20057;-86
2021/08/26 02:17:32;;;;;;;10.25;5.60;;;17.40;99.90;;;;;;4953055;28;20077;-86
2021/08/26 02:20:04;;;;;;;8.55;4.57;;;17.50;99.90;;;;;;5001027;28;20046;-86
2021/08/26 02:22:33;;;;;;;11.35;5.25;;;17.40;99.90;;;;;;4971325;28;20058;-85
2021/08/26 02:25:08;;;;;;;15.43;5.57;;;17.40;99.90;;;;;;5003687;28;20038;-84
2021/08/26 02:27:37;;;;;;;9.70;4.50;;;17.40;99.90;;;;;;4987959;28;20134;-88
2021/08/26 02:30:07;;;;;;;10.90;5.05;;;17.40;99.90;;;;;;4965066;28;20046;-85
2021/08/26 02:32:38;;;;;;;10.15;4.65;;;17.40;99.90;;;;;;5000049;28;20043;-87
2021/08/26 02:35:07;;;;;;;8.90;4.15;;;17.40;99.90;;;;;;4981179;28;20047;-85
2021/08/26 02:37:38;;;;;;;12.55;4.22;;;17.40;99.90;;;;;;4995940;28;20046;-85
2021/08/26 02:40:07;;;;;;;8.98;4.00;;;17.30;99.90;;;;;;4996745;28;20073;-85
2021/08/26 02:42:35;;;;;;;4.90;2.95;;;17.30;99.90;;;;;;4988196;28;20038;-86
2021/08/26 02:45:05;;;;;;;6.57;2.88;;;17.40;99.90;;;;;;4987315;28;20053;-86
2021/08/26 02:47:36;;;;;;;6.30;3.20;;;17.40;99.90;;;;;;5003462;28;20046;-84
2021/08/26 02:50:05;;;;;;;9.73;4.03;;;17.30;99.90;;;;;;4987600;28;20049;-86
2021/08/26 02:52:38;;;;;;;6.30;3.63;;;17.30;99.90;;;;;;5005980;28;20053;-84
2021/08/26 02:55:07;;;;;;;9.90;3.88;;;17.30;99.90;;;;;;5004212;28;20050;-87
2021/08/26 02:57:38;;;;;;;6.50;3.00;;;17.20;99.90;;;;;;4986695;28;20053;-85
2021/08/26 03:00:20;;;;;;;6.00;2.45;;;17.20;99.90;;;;;;4983264;28;20061;-85
2021/08/26 03:02:49;;;;;;;8.50;3.58;;;17.20;99.90;;;;;;5003312;28;20054;-85
2021/08/26 03:05:18;;;;;;;11.73;3.65;;;17.20;99.90;;;;;;4971026;28;20118;-85
2021/08/26 03:07:47;;;;;;;6.68;3.67;;;17.20;99.90;;;;;;4986182;28;20078;-85
2021/08/26 03:10:15;;;;;;;9.60;4.10;;;17.20;99.90;;;;;;5003450;28;20472;-84
2021/08/26 03:12:43;;;;;;;12.52;4.13;;;17.20;99.90;;;;;;4970697;28;20062;-84
2021/08/26 03:15:15;;;;;;;10.10;4.18;;;17.20;99.90;;;;;;4973382;28;20030;-86
2021/08/26 03:17:49;;;;;;;9.85;5.30;;;17.20;99.90;;;;;;4988265;28;20046;-84
2021/08/26 03:20:21;;;;;;;7.28;4.15;;;17.20;99.90;;;;;;4974341;28;20042;-85
2021/08/26 03:22:52;;;;;;;7.70;4.10;;;17.20;99.90;;;;;;4971633;28;20050;-85
2021/08/26 03:25:20;;;;;;;9.15;4.30;;;17.20;99.90;;;;;;4986909;28;20066;-86
2021/08/26 03:27:49;;;;;;;11.00;5.45;;;17.30;99.90;;;;;;4986392;28;20082;-85
2021/08/26 03:30:24;;;;;;;16.13;7.20;;;17.30;99.90;;;;;;4970960;28;20060;-84
2021/08/26 03:32:53;;;;;;;15.82;8.20;;;17.20;99.90;;;;;;4983934;28;20046;-85
2021/08/26 03:35:22;;;;;;;18.48;8.75;;;17.20;99.90;;;;;;4972152;28;20054;-85
2021/08/26 03:37:51;;;;;;;24.63;8.65;;;17.20;99.90;;;;;;4985883;28;20066;-85
2021/08/26 03:40:21;;;;;;;16.83;8.48;;;17.10;99.90;;;;;;4969930;28;20061;-86
2021/08/26 03:42:51;;;;;;;19.67;9.47;;;17.20;99.90;;;;;;5003151;28;20058;-86
2021/08/26 03:45:20;;;;;;;20.83;9.32;;;17.10;99.90;;;;;;4969286;28;20053;-86
2021/08/26 03:47:49;;;;;;;21.42;10.45;;;17.10;99.90;;;;;;4985703;28;20049;-87
2021/08/26 03:50:17;;;;;;;24.73;10.77;;;17.10;99.90;;;;;;4985844;28;20051;-86
2021/08/26 03:52:46;;;;;;;20.23;9.45;;;17.10;99.90;;;;;;4981274;28;20062;-85
2021/08/26 03:55:15;;;;;;;17.08;8.23;;;17.10;99.90;;;;;;4977202;28;20042;-85
2021/08/26 03:57:44;;;;;;;24.92;10.50;;;16.90;99.90;;;;;;4951986;28;20055;-86
2021/08/26 04:00:13;;;;;;;18.60;9.38;;;17.10;99.90;;;;;;5001295;28;20049;-85
2021/08/26 04:02:41;;;;;;;20.23;9.65;;;17.00;99.90;;;;;;4984952;28;20062;-85
2021/08/26 04:05:10;;;;;;;19.25;9.80;;;17.00;99.90;;;;;;4969776;28;20065;-85
2021/08/26 04:07:37;;;;;;;20.67;9.27;;;17.00;99.90;;;;;;4970416;28;20517;-85
2021/08/26 04:10:07;;;;;;;18.40;8.05;;;17.00;99.90;;;;;;4983904;28;20058;-86
2021/08/26 04:12:41;;;;;;;14.23;6.85;;;17.00;99.90;;;;;;4997572;28;20038;-86
2021/08/26 04:15:09;;;;;;;12.70;5.95;;;17.00;99.90;;;;;;4989999;28;20058;-85
2021/08/26 04:17:38;;;;;;;10.90;5.35;;;17.00;99.90;;;;;;5007229;28;20146;-84
2021/08/26 04:20:08;;;;;;;11.43;5.60;;;17.00;99.90;;;;;;4973630;28;20062;-85
2021/08/26 04:22:38;;;;;;;10.63;4.65;;;16.90;99.90;;;;;;4969279;28;20055;-85
2021/08/26 04:25:08;;;;;;;9.30;3.58;;;16.90;99.90;;;;;;4989126;28;20043;-86
2021/08/26 04:27:38;;;;;;;12.15;5.40;;;16.90;99.90;;;;;;5007494;28;20054;-85
2021/08/26 04:30:08;;;;;;;9.20;3.95;;;16.90;99.90;;;;;;4970293;28;20046;-86
2021/08/26 04:32:36;;;;;;;11.35;3.85;;;16.90;99.90;;;;;;4967867;28;20050;-85
2021/08/26 04:35:06;;;;;;;9.57;4.65;;;16.90;99.90;;;;;;4986965;28;20061;-86
2021/08/26 04:37:35;;;;;;;8.45;4.88;;;16.90;99.90;;;;;;5006407;28;20047;-85
2021/08/26 04:40:04;;;;;;;12.95;4.40;;;16.90;99.90;;;;;;4989826;28;20046;-86
2021/08/26 04:42:37;;;;;;;12.38;5.53;;;16.90;99.90;;;;;;4992031;28;20042;-84
2021/08/26 04:45:06;;;;;;;11.82;4.95;;;16.90;99.90;;;;;;4994455;28;20053;-85
2021/08/26 04:47:37;;;;;;;11.07;5.00;;;16.90;99.90;;;;;;5010773;28;20413;-84
2021/08/26 04:50:13;;;;;;;12.27;5.53;;;16.90;99.90;;;;;;4999370;28;20050;-84
2021/08/26 04:52:41;;;;;;;12.48;6.13;;;16.90;99.90;;;;;;4968136;28;20051;-85
2021/08/26 04:55:09;;;;;;;11.18;5.47;;;16.80;99.90;;;;;;4966935;28;20058;-89
2021/08/26 04:57:40;;;;;;;16.77;7.38;;;16.80;99.90;;;;;;4984707;28;20545;-86
2021/08/26 05:00:10;;;;;;;13.32;7.18;;;16.80;99.90;;;;;;4982928;28;20039;-84
2021/08/26 05:02:43;;;;;;;;;;;16.70;99.90;;;;;;4970644;28;20055;-85
2021/08/26 05:05:13;;;;;;;14.93;6.43;;;16.70;99.90;;;;;;4980382;28;19922;-85
2021/08/26 05:07:57;;;;;;;12.93;6.18;;;16.70;99.90;;;;;;4984980;28;20047;-85
2021/08/26 05:10:29;;;;;;;14.33;6.60;;;16.70;99.90;;;;;;4976858;28;20058;-85
2021/08/26 05:13:01;;;;;;;15.45;6.75;;;16.70;99.90;;;;;;4988810;28;20309;-85
2021/08/26 05:15:30;;;;;;;14.95;6.50;;;16.70;99.90;;;;;;4971855;28;20086;-86
2021/08/26 05:18:08;;;;;;;15.52;6.97;;;16.70;99.90;;;;;;4985275;28;20050;-86
2021/08/26 05:20:40;;;;;;;12.18;5.65;;;16.70;99.90;;;;;;4965888;28;20046;-86
2021/08/26 05:23:08;;;;;;;14.10;5.60;;;16.60;99.90;;;;;;4983644;28;20043;-86
2021/08/26 05:25:39;;;;;;;12.50;6.03;;;16.60;99.90;;;;;;4984401;28;20838;-85
2021/08/26 05:28:07;;;;;;;9.80;5.00;;;16.50;99.90;;;;;;4984425;28;20051;-87
2021/08/26 05:30:49;;;;;;;7.43;4.10;;;16.50;99.90;;;;;;4981589;28;20047;-85
2021/08/26 05:33:18;;;;;;;13.02;4.28;;;16.50;99.90;;;;;;4967574;28;20451;-87
2021/08/26 05:35:49;;;;;;;8.60;3.83;;;16.50;99.90;;;;;;4968388;28;20074;-85
2021/08/26 05:38:22;;;;;;;5.03;2.83;;;16.40;99.90;;;;;;4984588;28;20065;-86
2021/08/26 05:40:51;;;;;;;6.50;2.78;;;16.40;99.90;;;;;;4969374;28;20050;-87
2021/08/26 05:43:22;;;;;;;5.07;2.78;;;16.40;99.90;;;;;;4985860;28;20058;-87
2021/08/26 05:45:55;;;;;;;8.18;3.20;;;16.40;99.90;;;;;;4973506;28;20058;-85
2021/08/26 05:48:23;;;;;;;8.55;3.33;;;16.30;99.90;;;;;;4982255;28;20055;-85
2021/08/26 05:50:51;;;;;;;3.55;2.33;;;16.40;99.90;;;;;;4965555;28;20857;-86
2021/08/26 05:53:22;;;;;;;6.28;2.35;;;16.40;99.90;;;;;;4997507;28;20569;-86
2021/08/26 05:55:54;;;;;;;4.20;2.33;;;16.30;99.90;;;;;;4984232;28;20054;-86
2021/08/26 05:58:22;;;;;;;;;;;16.30;99.90;;;;;;4979925;28;20051;-85
2021/08/26 06:00:50;;;;;;;2.60;1.90;;;16.30;99.90;;;;;;4998337;28;19929;-87
2021/08/26 06:03:18;;;;;;;3.63;1.70;;;16.30;99.90;;;;;;4950399;28;20496;-87
2021/08/26 06:05:48;;;;;;;3.35;1.83;;;16.20;99.90;;;;;;4983009;28;20050;-87
2021/08/26 06:08:19;;;;;;;3.90;1.73;;;16.20;99.90;;;;;;4965092;28;20047;-86
2021/08/26 06:10:50;;;;;;;6.28;1.60;;;15.00;99.90;;;;;;4953153;28;20058;-88
2021/08/26 06:13:21;;;;;;;3.50;2.10;;;16.20;99.90;;;;;;4980224;28;20050;-87
2021/08/26 06:15:51;;;;;;;7.20;2.58;;;16.20;99.90;;;;;;4971546;28;20073;-84
2021/08/26 06:18:23;;;;;;;7.45;1.92;;;16.20;99.90;;;;;;4982490;28;20062;-86
2021/08/26 06:20:54;;;;;;;4.55;2.05;;;16.20;99.90;;;;;;4979970;28;20051;-86
2021/08/26 06:23:23;;;;;;;4.90;2.65;;;16.30;99.90;;;;;;4960227;28;20058;-85
2021/08/26 06:25:53;;;;;;;3.97;1.92;;;16.30;99.90;;;;;;4963671;28;20039;-85
2021/08/26 06:28:22;;;;;;;5.75;1.80;;;16.30;99.90;;;;;;4979282;28;20047;-85
2021/08/26 06:30:50;;;;;;;5.13;2.17;;;16.40;99.90;;;;;;4976200;28;20414;-88
2021/08/26 06:33:27;;;;;;;5.22;2.30;;;16.40;99.90;;;;;;4983275;28;20046;-88
2021/08/26 06:35:58;;;;;;;7.63;2.85;;;16.40;99.90;;;;;;4975570;28;20513;-88
2021/08/26 06:38:29;;;;;;;8.45;2.47;;;16.30;99.90;;;;;;4967399;28;20051;-88
2021/08/26 06:40:58;;;;;;;4.35;2.10;;;16.40;99.90;;;;;;4951590;28;20050;-88
2021/08/26 06:43:27;;;;;;;5.25;1.95;;;16.30;99.90;;;;;;4963553;28;20051;-88
2021/08/26 06:45:56;;;;;;;7.60;2.47;;;16.00;99.90;;;;;;4967280;28;20055;-90
2021/08/26 06:48:27;;;;;;;6.95;2.22;;;16.40;99.90;;;;;;4982238;28;20050;-89
2021/08/26 06:50:59;;;;;;;10.65;2.90;;;16.40;99.90;;;;;;4969530;28;20043;-89
2021/08/26 06:53:31;;;;;;;14.80;2.58;;;16.40;99.90;;;;;;4967636;28;20055;-89
2021/08/26 06:56:00;;;;;;;7.20;2.38;;;16.50;99.90;;;;;;4952704;28;20066;-89
2021/08/26 06:58:29;;;;;;;10.55;2.53;;;16.50;99.90;;;;;;4983085;28;20119;-89
2021/08/26 07:01:06;;;;;;;12.02;2.67;;;16.50;99.90;;;;;;4981291;28;20059;-89
2021/08/26 07:03:36;;;;;;;11.60;2.58;;;16.60;99.90;;;;;;4967168;28;20497;-89
2021/08/26 07:06:07;;;;;;;;;;;16.70;99.90;;;;;;4981846;28;20077;-89
2021/08/26 07:08:35;;;;;;;8.27;2.17;;;16.60;99.90;;;;;;4963769;28;19933;-89
2021/08/26 07:11:03;;;;;;;7.50;2.40;;;16.60;99.90;;;;;;4963956;28;20057;-89
2021/08/26 07:13:33;;;;;;;7.77;2.23;;;16.70;99.90;;;;;;4979986;28;20207;-89
2021/08/26 07:16:05;;;;;;;8.27;2.40;;;16.70;99.90;;;;;;4981751;28;20055;-89
2021/08/26 07:18:42;;;;;;;7.80;2.38;;;16.70;99.90;;;;;;4947518;28;20062;-88
2021/08/26 07:21:20;;;;;;;8.32;3.03;;;17.20;99.90;;;;;;4965157;28;20426;-88
2021/08/26 07:23:50;;;;;;;8.88;3.03;;;16.80;99.90;;;;;;4962923;28;20466;-89
2021/08/26 07:26:19;;;;;;;9.63;2.65;;;16.70;99.90;;;;;;4976707;28;20664;-87
2021/08/26 07:28:47;;;;;;;12.43;3.15;;;16.80;99.90;;;;;;4981375;28;20046;-87
2021/08/26 07:31:15;;;;;;;12.82;2.83;;;16.80;99.90;;;;;;4961857;28;20061;-86
2021/08/26 07:33:46;;;;;;;6.07;2.55;;;16.70;99.90;;;;;;4968794;28;20050;-87
2021/08/26 07:36:20;;;;;;;9.52;2.63;;;16.70;99.90;;;;;;4979169;28;20054;-87
2021/08/26 07:38:49;;;;;;;10.60;3.00;;;16.70;99.90;;;;;;4984235;28;20050;-88
2021/08/26 07:41:19;;;;;;;8.55;3.63;;;16.70;99.90;;;;;;4962485;28;20406;-87
2021/08/26 07:43:47;;;;;;;10.50;3.28;;;16.70;99.90;;;;;;4987486;28;20051;-88
2021/08/26 07:46:16;;;;;;;19.48;3.47;;;16.70;99.90;;;;;;4983121;28;20057;-88
2021/08/26 07:48:45;;;;;;;14.23;4.00;;;16.80;99.90;;;;;;4954618;28;20051;-87
2021/08/26 07:51:15;;;;;;;16.17;4.60;;;16.90;99.50;;;;;;4979562;28;20050;-88
2021/08/26 07:53:48;;;;;;;13.10;3.45;;;16.90;99.90;;;;;;4982163;28;20050;-88
2021/08/26 07:56:18;;;;;;;21.65;5.28;;;17.10;99.90;;;;;;4946176;28;20047;-87
2021/08/26 07:58:48;;;;;;;18.38;3.65;;;17.00;99.60;;;;;;4978258;28;20047;-88
2021/08/26 08:01:22;;;;;;;7.28;2.92;;;17.00;99.60;;;;;;4981523;28;20077;-87
2021/08/26 08:03:52;;;;;;;19.88;4.05;;;17.10;99.50;;;;;;4963561;28;20050;-87
2021/08/26 08:06:20;;;;;;;10.38;2.92;;;17.00;99.40;;;;;;4961449;28;20047;-88
2021/08/26 08:08:48;;;;;;;13.77;4.03;;;17.10;99.50;;;;;;4948333;28;20047;-87
2021/08/26 08:11:17;;;;;;;13.77;3.58;;;17.10;99.50;;;;;;4981711;28;20956;-88
2021/08/26 08:14:04;;;;;;;13.35;4.15;;;17.10;99.20;;;;;;4981107;28;20066;-87
2021/08/26 08:16:38;;;;;;;14.60;5.15;;;17.10;99.10;;;;;;4969573;28;20063;-87
2021/08/26 08:19:07;;;;;;;19.27;4.88;;;17.10;99.10;;;;;;4981010;28;20050;-88
2021/08/26 08:21:38;;;;;;;12.75;3.60;;;17.10;99.20;;;;;;4962549;28;20054;-88
2021/08/26 08:24:09;;;;;;;17.17;5.47;;;17.20;99.20;;;;;;4996327;28;20043;-87
2021/08/26 08:26:38;;;;;;;9.50;2.83;;;17.20;99.10;;;;;;4967446;28;20086;-88
2021/08/26 08:29:07;;;;;;;16.30;4.75;;;17.20;99.20;;;;;;4957089;29;20054;-87
2021/08/26 08:31:36;;;;;;;14.13;3.50;;;17.20;99.00;;;;;;4953124;28;20076;-87
2021/08/26 08:34:07;;;;;;;20.70;4.07;;;17.20;99.30;;;;;;4972084;28;20054;-86
2021/08/26 08:36:37;;;;;;;15.15;4.90;;;17.20;99.00;;;;;;4985168;28;20518;-87
2021/08/26 08:39:13;;;;;;;18.48;5.32;;;17.20;98.80;;;;;;4966100;28;20047;-86
2021/08/26 08:41:45;;;;;;;10.75;3.97;;;17.30;98.80;;;;;;4981186;28;20055;-87
2021/08/26 08:44:15;;;;;;;21.63;4.88;;;17.30;98.80;;;;;;4984317;28;20046;-86
2021/08/26 08:46:48;;;;;;;12.35;3.38;;;17.40;98.20;;;;;;4952332;28;20042;-87
2021/08/26 08:49:23;;;;;;;16.65;3.67;;;17.50;98.10;;;;;;4982675;28;20039;-87
2021/08/26 08:51:56;;;;;;;15.23;3.65;;;17.50;97.90;;;;;;4963594;28;20046;-87
2021/08/26 08:54:27;;;;;;;9.85;3.40;;;17.50;98.00;;;;;;4971118;28;20039;-87
2021/08/26 08:57:13;;;;;;;20.50;3.67;;;17.50;97.90;;;;;;4992769;28;20432;-88
2021/08/26 08:59:44;;;;;;;12.10;3.42;;;17.50;97.90;;;;;;4973296;28;20047;-88
2021/08/26 09:02:15;;;;;;;14.85;3.65;;;17.50;97.90;;;;;;4957592;28;20055;-89
2021/08/26 09:04:57;;;;;;;19.58;4.43;;;17.50;98.00;;;;;;4979912;28;20051;-87
2021/08/26 09:07:39;;;;;;;14.85;5.15;;;17.60;97.90;;;;;;4981899;28;20047;-88
2021/08/26 09:10:36;;;;;;;23.40;6.68;;;17.60;97.70;;;;;;4991030;28;20058;-88
2021/08/26 09:13:08;;;;;;;12.70;3.15;;;19.00;97.70;;;;;;4961112;28;20047;-88
2021/08/26 09:15:47;;;;;;;11.90;4.53;;;17.70;97.10;;;;;;4965392;28;20577;-88
2021/08/26 09:18:19;;;;;;;16.48;3.25;;;17.80;97.10;;;;;;4988442;28;20062;-89
2021/08/26 09:21:09;;;;;;;7.72;2.65;;;17.80;96.80;;;;;;4968842;28;20055;-88
2021/08/26 09:24:00;;;;;;;17.17;3.05;;;17.90;96.40;;;;;;4990491;28;20041;-89
2021/08/26 09:26:29;;;;;;;14.70;3.63;;;17.90;96.30;;;;;;4970201;28;20038;-89
2021/08/26 09:29:04;;;;;;;10.55;3.40;;;17.90;96.50;;;;;;4990088;28;20053;-88
2021/08/26 09:31:33;;;;;;;11.50;2.83;;;17.90;96.50;;;;;;4972753;28;20045;-87
2021/08/26 09:34:05;;;;;;;17.08;4.07;;;18.00;96.40;;;;;;4959316;28;20065;-88
2021/08/26 09:36:49;;;;;;;9.90;3.47;;;18.00;96.40;;;;;;4991712;28;20065;-87
2021/08/26 09:39:23;;;;;;;11.53;3.90;;;17.00;96.00;;;;;;4989181;28;20367;-87
2021/08/26 09:41:58;;;;;;;14.18;3.00;;;18.10;96.10;;;;;;4983446;28;20047;-87
2021/08/26 09:44:35;;;;;;;6.10;2.40;;;18.10;96.20;;;;;;4935265;28;20066;-86
2021/08/26 09:47:09;;;;;;;10.23;3.17;;;18.20;96.00;;;;;;4997292;28;20065;-87
2021/08/26 09:49:40;;;;;;;13.20;2.42;;;18.20;96.00;;;;;;4997922;28;20043;-89
2021/08/26 09:52:13;;;;;;;7.07;2.83;;;18.30;96.00;;;;;;4995574;28;20054;-87
2021/08/26 09:54:49;;;;;;;8.18;2.45;;;17.80;95.70;;;;;;4998998;28;20046;-86
2021/08/26 09:57:29;;;;;;;10.05;2.28;;;18.30;95.80;;;;;;5009141;28;20046;-87
2021/08/26 10:00:01;;;;;;;10.70;2.85;;;18.30;95.90;;;;;;5009768;28;20057;-87
2021/08/26 10:03:11;;;;;;;8.90;2.13;;;18.30;96.10;;;;;;4988741;28;20042;-87
2021/08/26 10:05:43;;;;;;;5.65;1.90;;;18.40;95.80;;;;;;4990406;28;20055;-86
2021/08/26 10:08:17;;;;;;;4.85;1.55;;;18.30;95.80;;;;;;4993162;28;20042;-87
2021/08/26 10:10:49;;;;;;;7.45;1.85;;;18.40;95.80;;;;;;4977288;28;20038;-86
2021/08/26 10:13:31;;;;;;;7.35;1.80;;;18.40;95.80;;;;;;5010485;28;20042;-88
2021/08/26 10:16:00;;;;;;;7.40;1.85;;;18.60;95.90;;;;;;4970165;28;20323;-87
2021/08/26 10:18:32;;;;;;;9.20;2.17;;;18.70;95.80;;;;;;4999993;28;20057;-87
2021/08/26 10:21:09;;;;;;;7.80;2.10;;;18.80;95.20;;;;;;4990193;28;20053;-87
2021/08/26 10:23:42;;;;;;;7.15;1.55;;;18.90;95.30;;;;;;4978757;28;20413;-88
2021/08/26 10:26:16;;;;;;;8.73;2.33;;;18.90;95.30;;;;;;4989949;28;20043;-88
2021/08/26 10:28:50;;;;;;;7.25;2.40;;;19.00;95.10;;;;;;5001113;28;20043;-88
2021/08/26 10:31:36;;;;;;;11.07;2.42;;;19.00;95.20;;;;;;5010877;28;20049;-88
2021/08/26 10:34:23;;;;;;;6.22;1.60;;;19.10;94.90;;;;;;5006168;28;20070;-87
2021/08/26 10:36:54;;;;;;;8.93;2.92;;;19.00;94.60;;;;;;4990380;28;20038;-87
2021/08/26 10:39:39;;;;;;;6.75;1.98;;;18.00;94.80;;;;;;4960907;28;20452;-87
2021/08/26 10:42:18;;;;;;;10.10;1.92;;;19.10;94.80;;;;;;5003829;28;20496;-88
2021/08/26 10:45:10;;;;;;;10.13;2.72;;;19.10;94.60;;;;;;4969207;28;20059;-87
2021/08/26 10:47:52;;;;;;;5.22;1.60;;;19.10;94.50;;;;;;4996993;28;20053;-90
2021/08/26 10:50:38;;;;;;;7.43;2.03;;;19.10;94.70;;;;;;4963894;28;20046;-89
2021/08/26 10:53:33;;;;;;;9.48;2.58;;;19.20;94.80;;;;;;4950954;28;20050;-87
2021/08/26 10:56:34;;;;;;;10.25;2.50;;;19.20;94.40;;;;;;4986659;28;20481;-87
2021/08/26 10:59:06;;;;;;;8.07;1.67;;;19.20;94.70;;;;;;4986152;28;20521;-87
2021/08/26 11:01:42;;;;;;;9.20;2.38;;;19.20;94.80;;;;;;4969725;28;20058;-87
2021/08/26 11:04:35;;;;;;;7.75;2.17;;;19.00;94.80;;;;;;4964411;28;20427;-87
2021/08/26 11:07:31;;;;;;;6.90;2.38;;;19.10;95.00;;;;;;4970377;28;20042;-88
2021/08/26 11:10:27;;;;;;;8.10;2.20;;;19.10;95.10;;;;;;5007229;28;20042;-87
2021/08/26 11:13:33;;;;;;;6.65;2.20;;;19.20;95.00;;;;;;4985328;28;20061;-88
2021/08/26 11:16:27;;;;;;;5.38;2.30;;;19.30;94.90;;;;;;5001140;28;20046;-88
2021/08/26 11:19:19;;;;;;;5.85;1.98;;;19.30;94.90;;;;;;4965153;28;20058;-88
2021/08/26 11:22:04;;;;;;;6.03;1.63;;;19.30;94.90;;;;;;4972214;28;20047;-87
2021/08/26 11:24:51;;;;;;;7.32;1.90;;;19.40;94.90;;;;;;4986827;28;20080;-88
2021/08/26 11:27:25;;;;;;;10.25;2.00;;;19.50;95.00;;;;;;4967585;28;20042;-89
2021/08/26 11:30:21;;;;;;;5.72;1.75;;;19.40;94.80;;;;;;4962786;28;20056;-89
2021/08/26 11:32:55;;;;;;;12.63;2.03;;;19.40;94.30;;;;;;4966397;28;20049;-88
2021/08/26 11:35:31;;;;;;;8.77;1.98;;;19.40;95.00;;;;;;4990761;28;20042;-89
2021/08/26 11:38:07;;;;;;;3.80;1.58;;;19.40;94.70;;;;;;4988141;28;20522;-88
2021/08/26 11:41:05;;;;;;;9.68;1.92;;;19.70;94.80;;;;;;5049296;28;20400;-76
2021/08/26 11:43:43;;;;;;;6.45;1.70;;;19.60;94.50;;;;;;5023162;28;20384;-80
2021/08/26 11:46:14;;;;;;;7.57;2.97;;;19.60;94.40;;;;;;5035822;28;20041;-77
2021/08/26 11:48:48;;;;;;;13.68;2.30;;;19.60;94.50;;;;;;5030156;28;20062;-80
2021/08/26 11:51:28;;;;;;;7.32;1.90;;;19.50;94.30;;;;;;5045973;28;20037;-77
2021/08/26 11:54:15;;;;;;;7.97;1.70;;;19.50;94.30;;;;;;5020935;28;20049;-81
2021/08/26 11:56:54;;;;;;;7.22;2.13;;;19.50;94.50;;;;;;5029818;28;20041;-79
2021/08/26 11:59:35;;;;;;;12.52;1.65;;;19.50;94.50;;;;;;5029762;28;20044;-80
2021/08/26 12:02:26;;;;;;;5.63;1.90;;;19.50;94.50;;;;;;5034319;28;20061;-77
2021/08/26 12:04:59;;;;;;;6.82;1.65;;;19.60;94.40;;;;;;5028042;28;20154;-79
2021/08/26 12:07:32;;;;;;;10.93;2.33;;;19.60;94.40;;;;;;5031724;28;20046;-77
2021/08/26 12:10:15;;;;;;;12.50;2.72;;;19.60;94.50;;;;;;5014877;28;20533;-78
2021/08/26 12:13:05;;;;;;;10.70;3.22;;;19.60;94.30;;;;;;5032169;28;20050;-80
2021/08/26 12:15:44;;;;;;;13.77;1.90;;;19.70;94.30;;;;;;5034845;28;20049;-79
2021/08/26 12:18:22;;;;;;;11.63;3.38;;;19.80;94.20;;;;;;5016619;28;20049;-81
2021/08/26 12:20:54;;;;;;;7.97;2.10;;;19.90;93.90;;;;;;5030723;28;20058;-81
2021/08/26 12:23:27;;;;;;;9.82;2.72;;;19.90;94.00;;;;;;5032460;28;20058;-79
2021/08/26 12:26:17;;;;;;;10.57;2.60;;;19.90;94.10;;;;;;5034446;28;20060;-79
2021/08/26 12:28:59;;;;;;;11.00;3.40;;;19.90;94.00;;;;;;5019077;28;20052;-80
2021/08/26 12:31:36;;;;;;;5.28;1.50;;;19.90;94.10;;;;;;5028740;28;20051;-78
2021/08/26 12:34:12;;;;;;;7.85;2.05;;;19.90;94.20;;;;;;5026481;28;20529;-80
2021/08/26 12:36:44;;;;;;;10.88;1.98;;;20.00;94.10;;;;;;5041433;28;20036;-81
2021/08/26 12:39:21;;;;;;;7.15;1.98;;;20.10;94.00;;;;;;5036159;28;20060;-80
2021/08/26 12:42:19;;;;;;;11.45;2.67;;;19.90;94.00;;;;;;5028989;28;20062;-79
2021/08/26 12:44:47;;;;;;;5.65;1.75;;;20.10;94.00;;;;;;5035275;28;20046;-80
2021/08/26 12:47:27;;;;;;;5.60;1.63;;;20.00;94.00;;;;;;5030128;28;20056;-79
2021/08/26 12:49:56;;;;;;;7.03;1.63;;;19.80;93.80;;;;;;5017407;28;20053;-81
2021/08/26 12:52:40;;;;;;;5.88;1.70;;;19.70;94.20;;;;;;5016276;28;20046;-81
2021/08/26 12:55:10;;;;;;;13.93;2.58;;;19.50;94.30;;;;;;5011415;28;20066;-78
2021/08/26 12:57:39;;;;;;;3.67;1.73;;;19.50;94.40;;;;;;5017739;28;20049;-76
2021/08/26 13:00:10;;;;;;;9.38;2.40;;;19.60;94.50;;;;;;5013523;28;20060;-77
2021/08/26 13:02:51;;;;;;;5.22;1.50;;;19.70;94.50;;;;;;5018538;28;20050;-78
2021/08/26 13:05:20;;;;;;;5.95;1.17;;;19.90;94.20;;;;;;5015329;28;20052;-76
2021/08/26 13:08:05;;;;;;;3.83;1.88;;;20.20;94.10;;;;;;5013377;28;20064;-78
2021/08/26 13:11:09;;;;;;;4.53;1.08;;;20.50;93.60;;;;;;5000531;28;20046;-78
2021/08/26 13:13:39;;;;;;;3.33;2.05;;;20.70;93.60;;;;;;5023097;28;20081;-79
2021/08/26 13:16:09;;;;;;;5.82;1.27;;;20.80;93.30;;;;;;4994930;28;20035;-79
2021/08/26 13:18:37;;;;;;;6.03;2.42;;;20.70;93.20;;;;;;5018500;28;20509;-79
2021/08/26 13:21:05;;;;;;;6.15;1.30;;;20.70;93.10;;;;;;5020227;28;20049;-78
2021/08/26 13:23:33;;;;;;;9.68;2.05;;;20.50;93.10;;;;;;4988343;28;20039;-78